Time;durP1;ratioP1;P1;durP2;ratioP2;P2;SDS_P1;SDS_P2;PMS_P1;PMS_P2;Temp;Humidity;BMP_temperature;BMP_pressure;BME280_temperature;BME280_humidity;BME280_pressure;Samples;Min_cycle;Max_cycle;Signal;HPM_P1;HPM_P2
2021/12/11 00:01:03;;;;;;;0.45;0.20;;;3.00;78.80;;;;;;5053569;28;20021;-74
2021/12/11 00:03:34;;;;;;;3.00;0.75;;;2.90;79.00;;;;;;5053425;28;20021;-73
2021/12/11 00:06:09;;;;;;;2.75;0.60;;;2.90;79.90;;;;;;5053499;28;20032;-74
2021/12/11 00:08:36;;;;;;;0.90;0.40;;;2.90;80.40;;;;;;5053462;28;20070;-75
2021/12/11 00:11:10;;;;;;;0.70;0.35;;;2.90;80.60;;;;;;5053440;28;20025;-74
2021/12/11 00:13:38;;;;;;;1.13;0.40;;;2.80;80.80;;;;;;5053372;28;20033;-74
2021/12/11 00:16:06;;;;;;;0.75;0.45;;;2.90;80.80;;;;;;5053575;28;20021;-76
2021/12/11 00:18:32;;;;;;;1.08;0.52;;;2.90;80.80;;;;;;5053274;28;20096;-74
2021/12/11 00:21:01;;;;;;;4.53;0.50;;;2.90;81.00;;;;;;5052905;28;20078;-75
2021/12/11 00:23:31;;;;;;;3.13;0.68;;;2.90;81.20;;;;;;5053248;28;20481;-74
2021/12/11 00:25:57;;;;;;;2.92;0.73;;;2.90;81.00;;;;;;5035305;28;20044;-73
2021/12/11 00:28:23;;;;;;;1.88;0.40;;;2.80;81.50;;;;;;5052863;28;20501;-74
2021/12/11 00:30:49;;;;;;;4.28;0.45;;;2.80;81.40;;;;;;5054428;28;20040;-75
2021/12/11 00:33:18;;;;;;;1.58;0.52;;;2.70;81.50;;;;;;5052884;28;20068;-74
2021/12/11 00:35:44;;;;;;;1.23;0.30;;;2.80;81.60;;;;;;5035092;28;20563;-74
2021/12/11 00:38:23;;;;;;;0.95;0.30;;;2.80;81.10;;;;;;5053054;28;20409;-75
2021/12/11 00:40:51;;;;;;;1.08;0.40;;;2.80;81.30;;;;;;5053032;28;20024;-75
2021/12/11 00:43:21;;;;;;;0.40;0.40;;;2.70;81.80;;;;;;5053182;28;20025;-75
2021/12/11 00:45:49;;;;;;;2.20;0.45;;;2.80;81.70;;;;;;5053081;28;20053;-73
2021/12/11 00:48:19;;;;;;;1.02;0.40;;;2.80;81.40;;;;;;5053002;28;20028;-75
2021/12/11 00:50:59;;;;;;;1.95;0.35;;;2.80;81.50;;;;;;5053467;28;20021;-73
2021/12/11 00:53:39;;;;;;;2.47;0.40;;;2.80;81.50;;;;;;5053409;28;20029;-74
2021/12/11 00:56:08;;;;;;;0.73;0.40;;;2.80;81.50;;;;;;5061287;28;20430;-75
2021/12/11 00:58:37;;;;;;;0.88;0.60;;;2.80;81.30;;;;;;5062018;28;20032;-73
2021/12/11 01:01:06;;;;;;;1.52;0.40;;;2.80;81.00;;;;;;5063511;28;20025;-74
2021/12/11 01:03:53;;;;;;;0.45;0.35;;;2.80;81.20;;;;;;5064525;28;20024;-74
2021/12/11 01:06:32;;;;;;;1.17;0.50;;;2.80;80.90;;;;;;5059221;28;20025;-75
2021/12/11 01:09:11;;;;;;;3.55;0.60;;;2.90;81.00;;;;;;5057984;28;20029;-74
2021/12/11 01:11:42;;;;;;;5.38;0.45;;;2.90;81.20;;;;;;5037040;28;20053;-73
2021/12/11 01:14:27;;;;;;;2.15;0.50;;;2.90;81.50;;;;;;5052904;28;20033;-73
2021/12/11 01:17:01;;;;;;;0.82;0.40;;;2.80;81.80;;;;;;5035116;28;20025;-73
2021/12/11 01:19:28;;;;;;;0.22;0.20;;;2.80;82.20;;;;;;5052768;28;20036;-76
2021/12/11 01:21:59;;;;;;;1.27;0.38;;;2.80;82.30;;;;;;5052929;28;20535;-74
2021/12/11 01:24:42;;;;;;;0.90;0.40;;;2.80;82.10;;;;;;5052726;28;20024;-77
2021/12/11 01:27:11;;;;;;;1.20;0.30;;;2.80;82.50;;;;;;5034909;28;20044;-76
2021/12/11 01:29:37;;;;;;;1.02;0.30;;;2.80;82.20;;;;;;5052447;28;20112;-78
2021/12/11 01:32:05;;;;;;;1.15;0.50;;;2.80;82.40;;;;;;5054309;28;20059;-76
2021/12/11 01:34:31;;;;;;;0.22;0.22;;;2.70;82.90;;;;;;5056252;28;20037;-75
2021/12/11 01:36:59;;;;;;;2.50;0.40;;;2.70;82.90;;;;;;5056371;28;20029;-75
2021/12/11 01:39:29;;;;;;;0.28;0.28;;;2.70;82.80;;;;;;5056200;28;20504;-73
2021/12/11 01:41:57;;;;;;;2.35;0.35;;;2.70;82.80;;;;;;5056277;28;20025;-74
2021/12/11 01:44:29;;;;;;;1.70;0.50;;;2.80;82.60;;;;;;5056108;28;20033;-73
2021/12/11 01:47:18;;;;;;;0.77;0.25;;;2.80;82.60;;;;;;5056221;28;20096;-72
2021/12/11 01:49:48;;;;;;;0.65;0.30;;;2.80;82.10;;;;;;5056130;28;20029;-74
2021/12/11 01:52:33;;;;;;;0.40;0.30;;;2.70;82.50;;;;;;5056024;28;20031;-72
2021/12/11 01:55:00;;;;;;;1.10;0.40;;;2.80;82.70;;;;;;5056014;28;20569;-73
2021/12/11 01:57:28;;;;;;;0.40;0.40;;;2.80;82.80;;;;;;5055576;28;20029;-74
2021/12/11 02:00:16;;;;;;;2.05;0.40;;;2.80;82.50;;;;;;5037995;28;20031;-74
2021/12/11 02:02:47;;;;;;;1.42;0.40;;;2.80;82.70;;;;;;5055910;28;20485;-75
2021/12/11 02:05:18;;;;;;;3.15;0.38;;;2.80;82.40;;;;;;5055816;28;20017;-74
2021/12/11 02:07:50;;;;;;;0.57;0.40;;;2.70;82.70;;;;;;5055790;28;20074;-74
2021/12/11 02:10:24;;;;;;;0.20;0.20;;;2.70;82.70;;;;;;5055953;28;20017;-74
2021/12/11 02:12:51;;;;;;;0.40;0.20;;;2.80;82.30;;;;;;5055767;28;20032;-74
2021/12/11 02:15:27;;;;;;;0.63;0.22;;;2.80;82.30;;;;;;5055680;28;20029;-74
2021/12/11 02:18:09;;;;;;;1.08;0.38;;;2.90;82.10;;;;;;5055344;28;20123;-72
2021/12/11 02:20:41;;;;;;;2.72;0.40;;;2.80;81.70;;;;;;5037257;28;20440;-73
2021/12/11 02:23:07;;;;;;;0.30;0.30;;;2.80;81.80;;;;;;5037578;28;20025;-73
2021/12/11 02:25:39;;;;;;;0.25;0.25;;;2.80;81.50;;;;;;5055349;28;20039;-73
2021/12/11 02:28:12;;;;;;;0.40;0.35;;;2.90;81.40;;;;;;5055303;28;20052;-72
2021/12/11 02:31:06;;;;;;;1.50;0.30;;;2.90;81.50;;;;;;5055187;28;20449;-73
2021/12/11 02:33:49;;;;;;;1.23;0.30;;;2.80;81.50;;;;;;5054904;28;20044;-73
2021/12/11 02:36:23;;;;;;;0.73;0.38;;;2.80;81.20;;;;;;5055110;28;20104;-75
2021/12/11 02:38:53;;;;;;;0.30;0.30;;;2.80;81.30;;;;;;5055143;28;20420;-73
2021/12/11 02:41:21;;;;;;;0.32;0.28;;;2.80;81.60;;;;;;5055078;28;20032;-73
2021/12/11 02:43:50;;;;;;;1.23;0.30;;;2.80;81.60;;;;;;5054595;28;20021;-74
2021/12/11 02:46:17;;;;;;;0.90;0.30;;;2.80;81.10;;;;;;5037026;28;20385;-74
2021/12/11 02:48:48;;;;;;;1.25;0.30;;;2.90;81.50;;;;;;5054841;28;20029;-74
2021/12/11 02:51:24;;;;;;;3.72;0.40;;;2.80;81.20;;;;;;5037048;28;20033;-76
2021/12/11 02:53:58;;;;;;;1.00;0.30;;;2.80;81.20;;;;;;5036839;28;20119;-74
2021/12/11 02:56:30;;;;;;;1.50;0.43;;;2.90;81.30;;;;;;5054715;28;20025;-73
2021/12/11 02:59:00;;;;;;;0.60;0.40;;;2.90;81.30;;;;;;5054768;28;20059;-74
2021/12/11 03:01:29;;;;;;;0.45;0.30;;;3.00;81.00;;;;;;5054651;28;20465;-75
2021/12/11 03:04:13;;;;;;;0.95;0.30;;;2.90;80.80;;;;;;5054682;28;20477;-74
2021/12/11 03:06:43;;;;;;;1.50;0.40;;;2.90;81.10;;;;;;5054692;28;20025;-74
2021/12/11 03:09:12;;;;;;;0.70;0.40;;;2.90;80.80;;;;;;5054610;28;20021;-74
2021/12/11 03:11:38;;;;;;;1.38;0.30;;;3.00;79.90;;;;;;5054455;28;20652;-74
2021/12/11 03:14:05;;;;;;;0.63;0.20;;;3.00;80.00;;;;;;5054388;28;20033;-74
2021/12/11 03:16:33;;;;;;;1.35;0.32;;;3.00;80.00;;;;;;5054379;28;20024;-75
2021/12/11 03:19:00;;;;;;;1.25;0.52;;;3.00;80.20;;;;;;5054323;28;20025;-74
2021/12/11 03:21:27;;;;;;;0.70;0.50;;;3.00;80.10;;;;;;5054167;28;20067;-74
2021/12/11 03:23:55;;;;;;;0.30;0.30;;;3.00;79.90;;;;;;5054422;28;20027;-74
2021/12/11 03:26:24;;;;;;;0.30;0.30;;;3.00;80.00;;;;;;5054074;28;20075;-74
2021/12/11 03:28:50;;;;;;;0.82;0.30;;;2.90;80.00;;;;;;5054140;28;20052;-74
2021/12/11 03:31:15;;;;;;;1.10;0.32;;;2.90;79.90;;;;;;5054000;28;20067;-73
2021/12/11 03:33:48;;;;;;;2.05;0.40;;;2.90;80.00;;;;;;5053978;28;20033;-74
2021/12/11 03:36:17;;;;;;;0.20;0.20;;;2.90;79.90;;;;;;5053839;28;20087;-74
2021/12/11 03:38:46;;;;;;;1.20;0.43;;;2.90;79.90;;;;;;5054215;28;20017;-74
2021/12/11 03:41:12;;;;;;;2.83;0.55;;;2.90;80.50;;;;;;5053829;28;20025;-74
2021/12/11 03:43:38;;;;;;;0.52;0.50;;;2.90;80.50;;;;;;5053835;28;20477;-74
2021/12/11 03:46:09;;;;;;;1.02;0.20;;;2.90;80.00;;;;;;5053860;28;20496;-74
2021/12/11 03:49:09;;;;;;;2.15;0.50;;;3.00;80.80;;;;;;5053649;28;20025;-74
2021/12/11 03:51:38;;;;;;;1.17;0.40;;;2.90;80.30;;;;;;5019914;28;20078;-74
2021/12/11 03:54:08;;;;;;;1.30;0.30;;;2.90;80.20;;;;;;5052881;28;20421;-73
2021/12/11 03:56:36;;;;;;;0.70;0.25;;;2.90;80.10;;;;;;5053640;28;20021;-74
2021/12/11 03:59:08;;;;;;;0.60;0.20;;;2.90;79.90;;;;;;5053601;28;20017;-74
2021/12/11 04:01:40;;;;;;;1.65;0.32;;;3.00;79.80;;;;;;5053675;28;20032;-74
2021/12/11 04:04:17;;;;;;;0.63;0.38;;;3.00;80.00;;;;;;5053502;28;20024;-74
2021/12/11 04:06:43;;;;;;;2.45;0.28;;;3.00;79.80;;;;;;5053449;28;20428;-74
2021/12/11 04:09:11;;;;;;;2.25;0.35;;;2.90;80.40;;;;;;5035560;28;20039;-73
2021/12/11 04:11:37;;;;;;;1.13;0.30;;;2.90;80.40;;;;;;5053355;28;20028;-74
2021/12/11 04:14:10;;;;;;;2.65;0.38;;;2.90;80.70;;;;;;5053274;28;20504;-74
2021/12/11 04:16:35;;;;;;;0.50;0.35;;;2.90;80.90;;;;;;5053146;28;20029;-74
2021/12/11 04:19:03;;;;;;;1.08;0.40;;;2.80;81.30;;;;;;5035413;28;20025;-74
2021/12/11 04:21:29;;;;;;;1.65;0.50;;;2.80;81.40;;;;;;5053313;28;20048;-74
2021/12/11 04:23:55;;;;;;;1.58;0.52;;;2.80;81.80;;;;;;5053122;28;20432;-73
2021/12/11 04:26:21;;;;;;;2.67;0.55;;;2.80;82.40;;;;;;5052939;28;20393;-74
2021/12/11 04:28:47;;;;;;;0.40;0.40;;;2.80;82.90;;;;;;5053047;28;20032;-74
2021/12/11 04:31:19;;;;;;;1.63;1.02;;;2.70;83.20;;;;;;5053142;28;20021;-74
2021/12/11 04:33:47;;;;;;;0.38;0.30;;;2.70;83.50;;;;;;5052968;28;20044;-74
2021/12/11 04:36:21;;;;;;;0.75;0.50;;;2.70;83.50;;;;;;5052949;28;20056;-74
2021/12/11 04:38:48;;;;;;;1.63;0.40;;;2.70;83.50;;;;;;5053178;28;20048;-74
2021/12/11 04:41:21;;;;;;;1.08;0.60;;;2.70;83.70;;;;;;5052963;28;20035;-74
2021/12/11 04:43:50;;;;;;;0.50;0.43;;;2.60;83.80;;;;;;5052992;28;20077;-74
2021/12/11 04:46:16;;;;;;;0.32;0.32;;;2.70;84.10;;;;;;5052828;28;20021;-74
2021/12/11 04:48:56;;;;;;;0.75;0.40;;;2.70;84.10;;;;;;5053030;28;20029;-74
2021/12/11 04:54:25;;;;;;;2.03;0.50;;;2.70;84.30;;;;;;5052501;28;20449;-73
2021/12/11 04:59:54;;;;;;;4.43;2.45;;;2.80;84.20;;;;;;5052636;28;20025;-73
2021/12/11 05:05:41;;;;;;;2.08;1.10;;;2.80;84.70;;;;;;5053285;28;20071;-73
2021/12/11 05:10:59;;;;;;;1.20;1.10;;;2.80;86.00;;;;;;5056659;28;20021;-73
2021/12/11 05:13:28;;;;;;;1.92;1.00;;;2.70;86.40;;;;;;5056540;28;20025;-73
2021/12/11 05:15:56;;;;;;;2.15;0.82;;;2.70;86.80;;;;;;5038907;28;20033;-71
2021/12/11 05:18:25;;;;;;;1.30;0.98;;;2.70;87.20;;;;;;5038617;28;20480;-71
2021/12/11 05:20:56;;;;;;;8.93;3.42;;;2.60;87.70;;;;;;5056538;28;20104;-71
2021/12/11 05:23:22;;;;;;;5.22;2.05;;;2.60;87.90;;;;;;5056428;28;20021;-72
2021/12/11 05:25:48;;;;;;;2.55;0.90;;;2.60;88.10;;;;;;5038322;28;20025;-72
2021/12/11 05:28:14;;;;;;;1.02;0.75;;;2.50;88.40;;;;;;5038465;28;20071;-71
2021/12/11 05:30:45;;;;;;;1.05;0.95;;;2.50;88.60;;;;;;5038094;28;20492;-72
2021/12/11 05:33:10;;;;;;;2.78;0.80;;;2.50;88.80;;;;;;5038093;28;20074;-72
2021/12/11 05:35:39;;;;;;;2.28;1.00;;;2.50;88.90;;;;;;5056246;28;20470;-73
2021/12/11 05:38:08;;;;;;;2.15;1.20;;;2.50;88.90;;;;;;5056017;28;20021;-72
2021/12/11 05:40:36;;;;;;;1.00;0.90;;;2.60;89.00;;;;;;5056062;28;20017;-72
2021/12/11 05:43:04;;;;;;;0.70;0.70;;;2.60;89.00;;;;;;5056124;28;20021;-72
2021/12/11 05:45:30;;;;;;;3.55;1.58;;;2.60;88.80;;;;;;5055961;28;20381;-72
2021/12/11 05:47:56;;;;;;;3.72;1.75;;;2.50;88.80;;;;;;5056019;28;20032;-72
2021/12/11 05:50:34;;;;;;;3.85;1.40;;;2.60;88.90;;;;;;5055968;28;20102;-73
2021/12/11 05:53:02;;;;;;;3.88;1.83;;;2.60;88.80;;;;;;5056147;28;20366;-72
2021/12/11 05:55:30;;;;;;;4.25;2.03;;;2.50;88.60;;;;;;5056313;28;20064;-72
2021/12/11 05:57:58;;;;;;;4.18;2.13;;;2.50;88.40;;;;;;5056074;28;20017;-71
2021/12/11 06:00:29;;;;;;;1.85;1.20;;;2.50;88.20;;;;;;5056050;28;20040;-72
2021/12/11 06:02:55;;;;;;;1.25;1.05;;;2.50;87.90;;;;;;5038121;28;20021;-73
2021/12/11 06:05:21;;;;;;;2.05;1.00;;;2.50;87.60;;;;;;5055899;28;20029;-73
2021/12/11 06:07:47;;;;;;;2.20;0.93;;;2.50;87.30;;;;;;5055517;28;20035;-73
2021/12/11 06:10:16;;;;;;;1.15;0.90;;;2.40;87.50;;;;;;5055796;28;20024;-74
2021/12/11 06:12:44;;;;;;;4.20;2.28;;;2.40;87.60;;;;;;5055627;28;20107;-72
2021/12/11 06:15:10;;;;;;;2.55;1.77;;;2.40;87.60;;;;;;5055509;28;20104;-72
2021/12/11 06:17:37;;;;;;;1.50;1.00;;;2.40;87.50;;;;;;5054446;28;20371;-73
2021/12/11 06:20:05;;;;;;;1.70;1.38;;;2.50;87.20;;;;;;5055439;28;20541;-72
2021/12/11 06:22:34;;;;;;;1.13;0.93;;;2.40;87.10;;;;;;5055233;28;20025;-72
2021/12/11 06:25:04;;;;;;;3.60;1.85;;;2.50;87.00;;;;;;5055271;28;20457;-72
2021/12/11 06:27:31;;;;;;;2.47;1.35;;;2.40;87.00;;;;;;5037375;28;20029;-73
2021/12/11 06:29:57;;;;;;;5.68;1.50;;;2.30;87.30;;;;;;5055158;28;20373;-73
2021/12/11 06:32:24;;;;;;;2.45;1.38;;;2.40;87.20;;;;;;5054939;28;20053;-71
2021/12/11 06:34:52;;;;;;;3.45;1.85;;;2.40;87.20;;;;;;5055086;28;20116;-72
2021/12/11 06:37:20;;;;;;;4.47;2.33;;;2.40;87.00;;;;;;5055035;28;20029;-72
2021/12/11 06:39:46;;;;;;;6.90;2.28;;;2.40;86.90;;;;;;5037286;28;20031;-75
2021/12/11 06:42:12;;;;;;;1.35;1.00;;;2.30;87.20;;;;;;5055090;28;20074;-74
2021/12/11 06:44:38;;;;;;;1.33;0.90;;;2.40;87.10;;;;;;5037090;28;20427;-74
2021/12/11 06:47:07;;;;;;;1.17;0.80;;;2.40;86.90;;;;;;5054859;28;20029;-74
2021/12/11 06:49:34;;;;;;;2.28;1.40;;;2.40;87.00;;;;;;5054664;28;20115;-73
2021/12/11 06:52:02;;;;;;;3.60;1.40;;;2.40;87.00;;;;;;5054600;28;20021;-74
2021/12/11 06:54:28;;;;;;;1.33;1.05;;;2.40;86.90;;;;;;5054614;28;20474;-72
2021/12/11 06:56:54;;;;;;;2.20;0.80;;;2.40;86.90;;;;;;5054599;28;20031;-71
2021/12/11 06:59:20;;;;;;;1.42;1.10;;;2.40;86.80;;;;;;5054459;28;20086;-75
2021/12/11 07:01:47;;;;;;;1.42;1.00;;;2.40;86.80;;;;;;5054621;28;20028;-72
2021/12/11 07:04:13;;;;;;;1.55;1.05;;;2.40;86.70;;;;;;5054549;28;20549;-74
2021/12/11 07:06:47;;;;;;;2.85;1.50;;;2.40;86.70;;;;;;5054597;28;20397;-72
2021/12/11 07:09:14;;;;;;;1.33;1.00;;;2.50;86.90;;;;;;5054483;28;20385;-75
2021/12/11 07:11:43;;;;;;;3.30;1.67;;;2.50;86.80;;;;;;5054524;28;20438;-74
2021/12/11 07:14:10;;;;;;;3.67;2.47;;;2.50;86.60;;;;;;5054353;28;20052;-72
2021/12/11 07:16:36;;;;;;;1.08;1.00;;;2.50;86.40;;;;;;5054273;28;20068;-74
2021/12/11 07:19:04;;;;;;;2.20;1.20;;;2.50;86.20;;;;;;5054315;28;20021;-74
2021/12/11 07:21:30;;;;;;;1.42;0.93;;;2.50;86.10;;;;;;5036320;28;20021;-73
2021/12/11 07:23:55;;;;;;;1.38;1.10;;;2.40;86.40;;;;;;5054044;28;20029;-73
2021/12/11 07:26:31;;;;;;;2.25;1.40;;;2.40;86.30;;;;;;5053958;28;20029;-72
2021/12/11 07:29:01;;;;;;;1.65;1.35;;;2.40;86.00;;;;;;5053981;28;20031;-72
2021/12/11 07:31:27;;;;;;;2.83;1.52;;;2.40;86.00;;;;;;5053770;28;20110;-72
2021/12/11 07:33:53;;;;;;;1.90;1.52;;;2.30;86.80;;;;;;5053773;28;20065;-72
2021/12/11 07:36:20;;;;;;;1.75;1.17;;;2.20;86.50;;;;;;5053878;28;20436;-72
2021/12/11 07:38:46;;;;;;;3.25;1.67;;;2.20;86.70;;;;;;5054403;28;20027;-73
2021/12/11 07:41:13;;;;;;;1.83;1.25;;;2.30;86.50;;;;;;5053604;28;20025;-72
2021/12/11 07:43:41;;;;;;;1.75;1.35;;;2.30;86.30;;;;;;5053655;28;20051;-73
2021/12/11 07:46:09;;;;;;;5.18;3.22;;;2.30;86.20;;;;;;5053532;28;20071;-73
2021/12/11 07:48:35;;;;;;;1.90;1.65;;;2.30;86.20;;;;;;5053535;28;20025;-72
2021/12/11 07:51:04;;;;;;;1.73;1.25;;;2.30;86.00;;;;;;5053467;28;20028;-73
2021/12/11 07:53:30;;;;;;;3.78;2.00;;;2.30;85.80;;;;;;5053368;28;20040;-72
2021/12/11 07:55:55;;;;;;;6.90;2.40;;;2.30;85.80;;;;;;5053155;28;20373;-73
2021/12/11 07:58:21;;;;;;;4.38;1.90;;;2.40;85.80;;;;;;5053350;28;20033;-72
2021/12/11 08:00:48;;;;;;;2.47;1.70;;;2.30;85.80;;;;;;5053333;28;20021;-73
2021/12/11 08:03:15;;;;;;;1.73;1.40;;;2.40;85.80;;;;;;5035455;28;20541;-73
2021/12/11 08:05:46;;;;;;;2.55;1.40;;;2.40;86.30;;;;;;5053248;28;20025;-75
2021/12/11 08:08:12;;;;;;;3.10;1.77;;;2.30;86.10;;;;;;5053211;28;20017;-74
2021/12/11 08:10:45;;;;;;;2.70;2.22;;;2.30;86.00;;;;;;5053276;28;20032;-75
2021/12/11 08:13:11;;;;;;;5.60;2.03;;;2.30;86.20;;;;;;5053033;28;20068;-74
2021/12/11 08:15:39;;;;;;;4.07;2.35;;;2.30;86.40;;;;;;5052643;28;20050;-74
2021/12/11 08:18:07;;;;;;;4.05;2.88;;;2.30;86.80;;;;;;5052784;28;20048;-76
2021/12/11 08:20:34;;;;;;;3.25;2.17;;;2.30;86.60;;;;;;5052851;28;20375;-74
2021/12/11 08:23:01;;;;;;;2.92;2.15;;;2.30;86.40;;;;;;5034995;28;20334;-73
2021/12/11 08:25:28;;;;;;;3.50;2.38;;;2.40;86.10;;;;;;5052758;28;20020;-73
2021/12/11 08:27:56;;;;;;;8.25;2.47;;;2.40;86.20;;;;;;5035134;28;20031;-73
2021/12/11 08:30:24;;;;;;;3.80;2.50;;;3.00;95.00;;;;;;5052538;28;20017;-74
2021/12/11 08:32:51;;;;;;;5.65;3.20;;;3.20;90.80;;;;;;5052569;28;20037;-74
2021/12/11 08:35:17;;;;;;;5.18;2.80;;;3.40;88.50;;;;;;5052874;28;20097;-76
2021/12/11 08:37:48;;;;;;;6.35;2.85;;;3.70;84.50;;;;;;5053071;28;20021;-75
2021/12/11 08:40:26;;;;;;;6.50;3.63;;;3.90;83.70;;;;;;5052362;28;20040;-76
2021/12/11 08:42:53;;;;;;;8.40;4.25;;;4.10;81.90;;;;;;5053093;28;20101;-78
2021/12/11 08:45:23;;;;;;;4.03;2.83;;;4.30;81.10;;;;;;5052988;28;20108;-79
2021/12/11 08:47:56;;;;;;;3.50;2.28;;;4.60;81.60;;;;;;5053072;28;20481;-76
2021/12/11 08:50:26;;;;;;;4.50;2.53;;;4.70;79.60;;;;;;5053387;28;20108;-77
2021/12/11 08:52:53;;;;;;;2.28;2.05;;;4.80;78.20;;;;;;5035122;28;20032;-77
2021/12/11 08:55:29;;;;;;;4.10;2.35;;;4.80;77.50;;;;;;5052850;28;20032;-76
2021/12/11 08:57:56;;;;;;;2.50;2.30;;;4.90;77.20;;;;;;5052720;28;20036;-75
2021/12/11 09:00:29;;;;;;;5.53;2.42;;;4.70;76.30;;;;;;5051926;28;20021;-73
2021/12/11 09:03:20;;;;;;;3.80;2.58;;;4.50;76.70;;;;;;5051241;28;20021;-73
2021/12/11 09:05:51;;;;;;;2.80;2.30;;;4.20;77.70;;;;;;5033870;28;20485;-73
2021/12/11 09:08:26;;;;;;;4.75;2.67;;;3.90;79.10;;;;;;5052383;28;20017;-72
2021/12/11 09:11:11;;;;;;;4.85;2.85;;;3.80;79.60;;;;;;5052765;28;20029;-73
2021/12/11 09:14:06;;;;;;;13.57;6.55;;;3.70;80.10;;;;;;5052466;28;20025;-73
2021/12/11 09:16:41;;;;;;;9.70;5.70;;;3.70;80.80;;;;;;5050557;28;20120;-72
2021/12/11 09:19:12;;;;;;;4.07;3.22;;;3.70;81.10;;;;;;5051997;28;20017;-74
2021/12/11 09:22:07;;;;;;;7.07;2.58;;;3.70;81.10;;;;;;5052604;28;20103;-73
2021/12/11 09:24:43;;;;;;;4.90;3.35;;;3.60;81.40;;;;;;5052632;28;20049;-73
2021/12/11 09:27:29;;;;;;;3.97;2.10;;;3.40;82.50;;;;;;5052018;28;20082;-71
2021/12/11 09:29:55;;;;;;;2.92;2.50;;;3.30;83.10;;;;;;5052163;28;20021;-73
2021/12/11 09:32:37;;;;;;;2.85;2.38;;;3.30;82.80;;;;;;5034213;28;20122;-73
2021/12/11 09:35:11;;;;;;;4.63;2.30;;;3.40;82.70;;;;;;5051896;28;20540;-73
2021/12/11 09:37:38;;;;;;;5.65;2.65;;;3.30;82.50;;;;;;5052230;28;20385;-73
2021/12/11 09:40:09;;;;;;;7.15;4.20;;;3.30;82.50;;;;;;5051795;28;20056;-72
2021/12/11 09:42:35;;;;;;;7.32;4.00;;;3.40;82.40;;;;;;5051669;28;20027;-74
2021/12/11 09:45:13;;;;;;;4.43;2.55;;;3.40;82.00;;;;;;5052065;28;20100;-74
2021/12/11 09:47:41;;;;;;;3.45;2.08;;;3.40;82.00;;;;;;5050640;28;20037;-74
2021/12/11 09:50:12;;;;;;;1.75;1.65;;;3.00;83.10;;;;;;5048316;28;20385;-75
2021/12/11 09:52:41;;;;;;;2.88;2.20;;;3.00;84.00;;;;;;5051415;28;20037;-74
2021/12/11 09:55:10;;;;;;;2.70;1.90;;;3.00;84.50;;;;;;5034264;28;20474;-73
2021/12/11 09:57:42;;;;;;;6.03;2.60;;;2.90;83.40;;;;;;5054417;28;20535;-75
2021/12/11 10:00:31;;;;;;;6.57;3.15;;;2.90;83.60;;;;;;5036698;28;20450;-73
2021/12/11 10:03:00;;;;;;;5.10;2.40;;;2.90;84.10;;;;;;5036713;28;20117;-73
2021/12/11 10:05:37;;;;;;;3.70;2.65;;;2.90;84.00;;;;;;5036455;28;20036;-74
2021/12/11 10:08:27;;;;;;;4.25;2.90;;;2.90;84.20;;;;;;5038055;28;20083;-76
2021/12/11 10:11:03;;;;;;;2.90;2.20;;;3.00;84.10;;;;;;5037886;28;20540;-76
2021/12/11 10:13:30;;;;;;;3.20;2.70;;;3.00;84.10;;;;;;5037003;28;20495;-75
2021/12/11 10:15:56;;;;;;;2.88;2.33;;;3.00;84.00;;;;;;5037989;28;20056;-75
2021/12/11 10:18:24;;;;;;;3.65;2.10;;;3.00;83.60;;;;;;5041961;28;20473;-74
2021/12/11 10:21:22;;;;;;;2.92;2.10;;;2.90;84.30;;;;;;5043370;28;20021;-73
2021/12/11 10:23:52;;;;;;;4.57;2.88;;;2.90;84.50;;;;;;5040992;28;20029;-74
2021/12/11 10:26:25;;;;;;;5.32;3.03;;;3.00;83.60;;;;;;5068650;28;20057;-73
2021/12/11 10:28:53;;;;;;;4.22;3.00;;;3.10;83.60;;;;;;5046504;28;20036;-75
2021/12/11 10:31:29;;;;;;;6.25;4.10;;;3.10;82.50;;;;;;5062721;28;20428;-75
2021/12/11 10:33:58;;;;;;;12.25;6.05;;;3.20;83.10;;;;;;5058378;28;20496;-74
2021/12/11 10:36:28;;;;;;;5.30;3.35;;;3.20;83.00;;;;;;5037404;28;20128;-76
2021/12/11 10:38:56;;;;;;;5.80;3.60;;;3.20;82.30;;;;;;5055224;28;20014;-75
2021/12/11 10:41:25;;;;;;;4.97;2.80;;;3.20;81.50;;;;;;5054728;28;20139;-73
2021/12/11 10:44:01;;;;;;;3.05;2.42;;;3.00;81.40;;;;;;5054199;28;20060;-73
2021/12/11 10:46:33;;;;;;;2.17;1.90;;;3.10;81.60;;;;;;5036175;28;20037;-73
2021/12/11 10:49:01;;;;;;;1.38;1.27;;;3.10;81.30;;;;;;5054678;28;20021;-74
2021/12/11 10:51:36;;;;;;;2.70;2.20;;;2.90;81.70;;;;;;5036370;28;20500;-74
2021/12/11 10:54:02;;;;;;;2.40;1.75;;;3.00;81.40;;;;;;5053712;28;20422;-74
2021/12/11 10:56:29;;;;;;;2.42;1.85;;;3.10;80.40;;;;;;5056159;28;20044;-77
2021/12/11 10:59:02;;;;;;;2.55;2.00;;;2.90;81.40;;;;;;5055365;28;20415;-74
2021/12/11 11:01:38;;;;;;;2.22;1.92;;;2.90;82.10;;;;;;5036258;28;20477;-78
2021/12/11 11:04:08;;;;;;;3.40;2.83;;;2.70;82.90;;;;;;5053826;28;20029;-75
2021/12/11 11:06:35;;;;;;;4.13;2.72;;;2.70;83.60;;;;;;5053716;28;20086;-76
2021/12/11 11:09:01;;;;;;;2.95;2.58;;;2.90;83.40;;;;;;5054029;28;20036;-75
2021/12/11 11:11:30;;;;;;;3.85;2.55;;;3.00;81.90;;;;;;5053941;28;20100;-75
2021/12/11 11:13:56;;;;;;;3.13;2.30;;;3.10;81.00;;;;;;5054117;28;20551;-76
2021/12/11 11:16:23;;;;;;;2.80;1.92;;;3.20;80.00;;;;;;5054139;28;20385;-74
2021/12/11 11:18:50;;;;;;;2.47;1.92;;;3.00;80.40;;;;;;5053900;28;20101;-76
2021/12/11 11:21:27;;;;;;;3.78;2.45;;;2.90;81.70;;;;;;5053961;28;20040;-75
2021/12/11 11:23:54;;;;;;;2.20;1.92;;;3.10;81.10;;;;;;5053986;28;20023;-75
2021/12/11 11:26:24;;;;;;;2.60;2.28;;;3.30;79.90;;;;;;5053810;28;20023;-74
2021/12/11 11:28:51;;;;;;;2.67;2.30;;;3.40;79.80;;;;;;5053844;28;20030;-74
2021/12/11 11:31:20;;;;;;;6.97;3.13;;;3.30;78.90;;;;;;5035748;28;20494;-75
2021/12/11 11:33:47;;;;;;;3.47;2.42;;;3.30;79.40;;;;;;5053904;28;20036;-75
2021/12/11 11:36:17;;;;;;;2.55;2.35;;;3.20;79.60;;;;;;5053611;28;20386;-76
2021/12/11 11:38:47;;;;;;;4.47;3.38;;;3.30;79.50;;;;;;5053328;28;20021;-75
2021/12/11 11:41:19;;;;;;;3.40;2.60;;;3.10;80.90;;;;;;5052551;28;20445;-73
2021/12/11 11:43:45;;;;;;;3.40;2.40;;;3.10;81.10;;;;;;5034828;28;20035;-74
2021/12/11 11:46:12;;;;;;;3.47;2.60;;;2.90;81.40;;;;;;5053393;28;20028;-74
2021/12/11 11:48:43;;;;;;;4.68;3.05;;;2.90;81.10;;;;;;5053440;28;20025;-74
2021/12/11 11:51:16;;;;;;;2.60;2.20;;;3.00;80.10;;;;;;5053491;28;20104;-76
2021/12/11 11:53:42;;;;;;;2.80;1.98;;;2.90;80.50;;;;;;5053410;28;20041;-74
2021/12/11 11:56:13;;;;;;;4.15;2.90;;;2.70;81.10;;;;;;5053355;28;20096;-75
2021/12/11 11:58:39;;;;;;;4.35;2.80;;;2.60;81.70;;;;;;5053503;28;20494;-74
2021/12/11 12:01:29;;;;;;;4.43;3.33;;;2.60;81.60;;;;;;5053577;28;20102;-76
2021/12/11 12:03:56;;;;;;;4.72;3.30;;;2.60;81.60;;;;;;5053583;28;20025;-76
2021/12/11 12:06:25;;;;;;;4.75;3.88;;;2.50;81.60;;;;;;5053320;28;20083;-77
2021/12/11 12:08:53;;;;;;;5.43;3.75;;;2.50;82.20;;;;;;5053178;28;20021;-76
2021/12/11 12:11:20;;;;;;;5.75;3.60;;;2.50;82.70;;;;;;5053268;28;20103;-77
2021/12/11 12:13:46;;;;;;;5.22;3.80;;;2.50;83.50;;;;;;5068581;28;20061;-74
2021/12/11 12:16:14;;;;;;;5.57;3.70;;;2.30;84.10;;;;;;5072313;28;20040;-77
2021/12/11 12:18:42;;;;;;;4.15;3.28;;;2.30;84.60;;;;;;5053741;28;20041;-75
2021/12/11 12:21:10;;;;;;;3.83;2.92;;;2.30;84.30;;;;;;5053171;28;20013;-76
2021/12/11 12:23:36;;;;;;;4.03;3.25;;;2.20;83.80;;;;;;5053126;28;20025;-77
2021/12/11 12:26:06;;;;;;;5.03;3.75;;;2.30;84.20;;;;;;5035084;28;20036;-77
2021/12/11 12:28:33;;;;;;;5.40;3.28;;;2.40;84.80;;;;;;5053103;28;20021;-74
2021/12/11 12:31:04;;;;;;;4.60;3.53;;;2.50;83.30;;;;;;5053032;28;20021;-74
2021/12/11 12:33:30;;;;;;;4.43;3.63;;;2.60;83.00;;;;;;5052592;28;20132;-75
2021/12/11 12:35:58;;;;;;;4.40;3.53;;;2.70;82.40;;;;;;5052589;28;20135;-75
2021/12/11 12:38:26;;;;;;;5.40;3.47;;;2.70;81.20;;;;;;5052715;28;20071;-76
2021/12/11 12:41:23;;;;;;;4.22;3.00;;;2.60;81.30;;;;;;5052850;28;20047;-76
2021/12/11 12:46:45;;;;;;;3.15;2.45;;;2.60;80.10;;;;;;5052838;28;20036;-76
2021/12/11 12:49:12;;;;;;;3.45;2.67;;;2.60;79.20;;;;;;5052484;28;20033;-73
2021/12/11 12:51:38;;;;;;;2.45;1.70;;;2.70;78.80;;;;;;5052779;28;20470;-75
2021/12/11 12:54:07;;;;;;;3.17;1.50;;;2.60;76.00;;;;;;5052522;28;20033;-75
2021/12/11 12:56:46;;;;;;;2.10;1.70;;;2.40;75.80;;;;;;5052612;28;20409;-74
2021/12/11 12:59:22;;;;;;;2.83;1.88;;;2.30;76.30;;;;;;5052509;28;20056;-76
2021/12/11 13:01:58;;;;;;;1.90;1.73;;;2.40;76.80;;;;;;5052692;28;20424;-73
2021/12/11 13:04:28;;;;;;;1.95;1.75;;;2.50;77.00;;;;;;5052264;28;20099;-73
2021/12/11 13:06:58;;;;;;;5.55;3.65;;;2.50;76.60;;;;;;5052466;28;20108;-73
2021/12/11 13:09:32;;;;;;;3.03;2.50;;;2.50;76.90;;;;;;5052496;28;20491;-73
2021/12/11 13:12:26;;;;;;;4.13;3.10;;;2.40;77.20;;;;;;5052917;28;20474;-76
2021/12/11 13:14:57;;;;;;;5.97;2.80;;;2.30;78.20;;;;;;5032293;28;20037;-77
2021/12/11 13:17:34;;;;;;;3.72;2.42;;;2.30;77.90;;;;;;5052601;28;20027;-74
2021/12/11 13:20:11;;;;;;;2.60;2.20;;;2.30;77.00;;;;;;5052572;28;20452;-75
2021/12/11 13:22:41;;;;;;;5.53;3.03;;;2.30;77.40;;;;;;5034707;28;20032;-76
2021/12/11 13:25:19;;;;;;;6.85;3.55;;;2.30;77.20;;;;;;5052181;28;20469;-76
2021/12/11 13:27:50;;;;;;;7.13;4.28;;;2.30;77.80;;;;;;5055457;28;20437;-73
2021/12/11 13:30:22;;;;;;;6.72;3.70;;;2.30;78.40;;;;;;5038167;28;20032;-75